sensor_id;sensor_type;location;lat;lon;timestamp;P1;durP1;ratioP1;P2;durP2;ratioP2
61704;SDS011;47627;48.078;11.522;2023-02-26T00:00:44;2.35;;;2.15;;
61704;SDS011;47627;48.078;11.522;2023-02-26T00:03:10;2.58;;;2.38;;
61704;SDS011;47627;48.078;11.522;2023-02-26T00:05:35;2.30;;;2.10;;
61704;SDS011;47627;48.078;11.522;2023-02-26T00:08:00;2.50;;;2.30;;
61704;SDS011;47627;48.078;11.522;2023-02-26T00:10:29;2.70;;;2.47;;
61704;SDS011;47627;48.078;11.522;2023-02-26T00:12:55;3.80;;;3.50;;
61704;SDS011;47627;48.078;11.522;2023-02-26T00:15:20;3.10;;;2.80;;
61704;SDS011;47627;48.078;11.522;2023-02-26T00:17:58;3.45;;;3.03;;
61704;SDS011;47627;48.078;11.522;2023-02-26T00:20:26;3.70;;;3.10;;
61704;SDS011;47627;48.078;11.522;2023-02-26T00:22:51;4.13;;;3.08;;
61704;SDS011;47627;48.078;11.522;2023-02-26T00:25:16;3.60;;;3.13;;
61704;SDS011;47627;48.078;11.522;2023-02-26T00:27:42;5.93;;;3.60;;
61704;SDS011;47627;48.078;11.522;2023-02-26T00:30:08;4.47;;;4.05;;
61704;SDS011;47627;48.078;11.522;2023-02-26T00:32:34;6.28;;;4.32;;
61704;SDS011;47627;48.078;11.522;2023-02-26T00:34:59;4.30;;;3.90;;
61704;SDS011;47627;48.078;11.522;2023-02-26T00:42:53;3.85;;;3.42;;
61704;SDS011;47627;48.078;11.522;2023-02-26T00:45:19;4.07;;;3.63;;
61704;SDS011;47627;48.078;11.522;2023-02-26T00:50:41;4.18;;;3.78;;
61704;SDS011;47627;48.078;11.522;2023-02-26T00:53:13;6.18;;;4.50;;
61704;SDS011;47627;48.078;11.522;2023-02-26T00:55:41;4.80;;;4.40;;
61704;SDS011;47627;48.078;11.522;2023-02-26T00:58:06;4.60;;;4.20;;
61704;SDS011;47627;48.078;11.522;2023-02-26T01:00:32;5.40;;;4.90;;
61704;SDS011;47627;48.078;11.522;2023-02-26T01:02:57;4.93;;;4.32;;
61704;SDS011;47627;48.078;11.522;2023-02-26T01:05:22;5.03;;;4.25;;
61704;SDS011;47627;48.078;11.522;2023-02-26T01:07:53;4.50;;;3.97;;
61704;SDS011;47627;48.078;11.522;2023-02-26T01:10:21;4.88;;;4.22;;
61704;SDS011;47627;48.078;11.522;2023-02-26T01:12:47;4.38;;;4.00;;
61704;SDS011;47627;48.078;11.522;2023-02-26T01:15:12;4.70;;;4.00;;
61704;SDS011;47627;48.078;11.522;2023-02-26T01:17:40;5.03;;;4.03;;
61704;SDS011;47627;48.078;11.522;2023-02-26T01:20:10;3.80;;;3.50;;
61704;SDS011;47627;48.078;11.522;2023-02-26T01:22:43;3.40;;;3.10;;
61704;SDS011;47627;48.078;11.522;2023-02-26T01:25:12;3.92;;;3.53;;
61704;SDS011;47627;48.078;11.522;2023-02-26T01:27:38;4.47;;;3.55;;
61704;SDS011;47627;48.078;11.522;2023-02-26T01:30:04;4.22;;;2.80;;
61704;SDS011;47627;48.078;11.522;2023-02-26T01:42:43;3.47;;;3.17;;
61704;SDS011;47627;48.078;11.522;2023-02-26T01:45:15;3.03;;;2.83;;
61704;SDS011;47627;48.078;11.522;2023-02-26T01:50:12;3.10;;;2.90;;
61704;SDS011;47627;48.078;11.522;2023-02-26T01:55:04;3.45;;;3.03;;
61704;SDS011;47627;48.078;11.522;2023-02-26T01:57:29;3.17;;;2.88;;
61704;SDS011;47627;48.078;11.522;2023-02-26T01:59:54;3.40;;;3.08;;
61704;SDS011;47627;48.078;11.522;2023-02-26T02:02:22;3.30;;;3.00;;
61704;SDS011;47627;48.078;11.522;2023-02-26T02:04:49;5.22;;;3.65;;
61704;SDS011;47627;48.078;11.522;2023-02-26T02:07:14;4.72;;;3.22;;
61704;SDS011;47627;48.078;11.522;2023-02-26T02:09:40;5.75;;;3.58;;
61704;SDS011;47627;48.078;11.522;2023-02-26T02:14:41;4.18;;;3.70;;
61704;SDS011;47627;48.078;11.522;2023-02-26T02:17:18;6.80;;;2.95;;
61704;SDS011;47627;48.078;11.522;2023-02-26T02:22:51;4.68;;;3.33;;
61704;SDS011;47627;48.078;11.522;2023-02-26T02:28:19;3.25;;;2.47;;
61704;SDS011;47627;48.078;11.522;2023-02-26T02:33:33;3.53;;;2.70;;
61704;SDS011;47627;48.078;11.522;2023-02-26T02:36:03;3.50;;;2.70;;
61704;SDS011;47627;48.078;11.522;2023-02-26T02:38:33;2.80;;;2.50;;
61704;SDS011;47627;48.078;11.522;2023-02-26T02:41:07;4.75;;;2.80;;
61704;SDS011;47627;48.078;11.522;2023-02-26T02:43:33;3.97;;;2.60;;
61704;SDS011;47627;48.078;11.522;2023-02-26T02:46:02;4.53;;;2.50;;
61704;SDS011;47627;48.078;11.522;2023-02-26T02:48:38;3.17;;;2.50;;
61704;SDS011;47627;48.078;11.522;2023-02-26T02:53:32;3.20;;;2.88;;
61704;SDS011;47627;48.078;11.522;2023-02-26T02:56:09;2.90;;;2.65;;
61704;SDS011;47627;48.078;11.522;2023-02-26T02:58:39;3.95;;;3.05;;
61704;SDS011;47627;48.078;11.522;2023-02-26T03:01:08;5.30;;;3.13;;
61704;SDS011;47627;48.078;11.522;2023-02-26T03:06:00;5.25;;;3.95;;
61704;SDS011;47627;48.078;11.522;2023-02-26T03:08:27;4.07;;;3.38;;
61704;SDS011;47627;48.078;11.522;2023-02-26T03:10:53;4.25;;;3.45;;
61704;SDS011;47627;48.078;11.522;2023-02-26T03:13:20;4.50;;;3.35;;
61704;SDS011;47627;48.078;11.522;2023-02-26T03:18:40;5.45;;;3.10;;
61704;SDS011;47627;48.078;11.522;2023-02-26T03:21:13;5.88;;;3.72;;
61704;SDS011;47627;48.078;11.522;2023-02-26T03:23:47;9.07;;;3.90;;
61704;SDS011;47627;48.078;11.522;2023-02-26T03:26:18;7.27;;;3.17;;
61704;SDS011;47627;48.078;11.522;2023-02-26T03:31:19;5.40;;;2.50;;
61704;SDS011;47627;48.078;11.522;2023-02-26T03:36:32;5.25;;;2.58;;
61704;SDS011;47627;48.078;11.522;2023-02-26T03:39:17;7.25;;;2.38;;
61704;SDS011;47627;48.078;11.522;2023-02-26T03:41:50;4.60;;;2.33;;
61704;SDS011;47627;48.078;11.522;2023-02-26T03:44:26;5.15;;;2.22;;
61704;SDS011;47627;48.078;11.522;2023-02-26T03:46:56;2.92;;;2.45;;
61704;SDS011;47627;48.078;11.522;2023-02-26T03:49:28;6.75;;;2.40;;
61704;SDS011;47627;48.078;11.522;2023-02-26T03:51:55;5.30;;;2.25;;
61704;SDS011;47627;48.078;11.522;2023-02-26T03:54:44;2.60;;;2.20;;
61704;SDS011;47627;48.078;11.522;2023-02-26T03:57:31;5.43;;;2.20;;
61704;SDS011;47627;48.078;11.522;2023-02-26T04:00:20;5.25;;;2.22;;
61704;SDS011;47627;48.078;11.522;2023-02-26T04:02:47;4.75;;;2.53;;
61704;SDS011;47627;48.078;11.522;2023-02-26T04:05:16;2.83;;;2.08;;
61704;SDS011;47627;48.078;11.522;2023-02-26T04:07:44;3.90;;;2.40;;
61704;SDS011;47627;48.078;11.522;2023-02-26T04:10:10;5.82;;;2.75;;
61704;SDS011;47627;48.078;11.522;2023-02-26T04:12:38;3.65;;;2.90;;
61704;SDS011;47627;48.078;11.522;2023-02-26T04:15:06;3.85;;;2.50;;
61704;SDS011;47627;48.078;11.522;2023-02-26T04:17:31;7.45;;;2.92;;
61704;SDS011;47627;48.078;11.522;2023-02-26T04:19:58;6.50;;;3.10;;
61704;SDS011;47627;48.078;11.522;2023-02-26T04:22:24;7.47;;;3.20;;
61704;SDS011;47627;48.078;11.522;2023-02-26T04:24:49;4.68;;;3.17;;
61704;SDS011;47627;48.078;11.522;2023-02-26T04:27:16;5.97;;;2.90;;
61704;SDS011;47627;48.078;11.522;2023-02-26T04:29:41;6.40;;;2.67;;
61704;SDS011;47627;48.078;11.522;2023-02-26T04:32:07;5.13;;;3.08;;
61704;SDS011;47627;48.078;11.522;2023-02-26T04:34:32;9.70;;;4.25;;
61704;SDS011;47627;48.078;11.522;2023-02-26T04:36:58;6.00;;;3.10;;
61704;SDS011;47627;48.078;11.522;2023-02-26T04:39:23;4.68;;;2.72;;
61704;SDS011;47627;48.078;11.522;2023-02-26T04:41:49;5.68;;;2.60;;
61704;SDS011;47627;48.078;11.522;2023-02-26T04:44:14;5.57;;;2.78;;
61704;SDS011;47627;48.078;11.522;2023-02-26T04:46:40;5.45;;;2.50;;
61704;SDS011;47627;48.078;11.522;2023-02-26T04:49:05;6.90;;;2.65;;
61704;SDS011;47627;48.078;11.522;2023-02-26T04:51:31;4.95;;;2.80;;
61704;SDS011;47627;48.078;11.522;2023-02-26T04:53:56;3.42;;;2.38;;
61704;SDS011;47627;48.078;11.522;2023-02-26T04:56:22;5.70;;;2.65;;
61704;SDS011;47627;48.078;11.522;2023-02-26T04:58:47;3.30;;;2.58;;
61704;SDS011;47627;48.078;11.522;2023-02-26T05:01:17;7.10;;;2.85;;
61704;SDS011;47627;48.078;11.522;2023-02-26T05:03:42;7.72;;;3.20;;
61704;SDS011;47627;48.078;11.522;2023-02-26T05:06:08;3.72;;;2.65;;
61704;SDS011;47627;48.078;11.522;2023-02-26T05:08:33;4.72;;;2.53;;
61704;SDS011;47627;48.078;11.522;2023-02-26T05:10:59;5.65;;;2.83;;
61704;SDS011;47627;48.078;11.522;2023-02-26T05:13:24;5.32;;;2.75;;
61704;SDS011;47627;48.078;11.522;2023-02-26T05:15:49;5.45;;;2.55;;
61704;SDS011;47627;48.078;11.522;2023-02-26T05:18:16;6.18;;;2.97;;
61704;SDS011;47627;48.078;11.522;2023-02-26T05:20:42;8.77;;;2.80;;
61704;SDS011;47627;48.078;11.522;2023-02-26T05:23:07;3.70;;;2.67;;
61704;SDS011;47627;48.078;11.522;2023-02-26T05:25:32;7.88;;;2.90;;
61704;SDS011;47627;48.078;11.522;2023-02-26T05:27:57;5.55;;;2.53;;
61704;SDS011;47627;48.078;11.522;2023-02-26T05:30:23;5.38;;;2.92;;
61704;SDS011;47627;48.078;11.522;2023-02-26T05:32:48;4.72;;;2.85;;
61704;SDS011;47627;48.078;11.522;2023-02-26T05:35:13;6.85;;;2.72;;
61704;SDS011;47627;48.078;11.522;2023-02-26T05:37:39;5.15;;;2.80;;
61704;SDS011;47627;48.078;11.522;2023-02-26T05:40:05;6.63;;;3.25;;
61704;SDS011;47627;48.078;11.522;2023-02-26T05:42:30;4.63;;;2.33;;
61704;SDS011;47627;48.078;11.522;2023-02-26T05:44:55;5.22;;;2.50;;
61704;SDS011;47627;48.078;11.522;2023-02-26T05:47:21;6.88;;;2.88;;
61704;SDS011;47627;48.078;11.522;2023-02-26T05:49:47;4.53;;;2.85;;
61704;SDS011;47627;48.078;11.522;2023-02-26T05:52:12;7.50;;;2.72;;
61704;SDS011;47627;48.078;11.522;2023-02-26T05:54:37;7.20;;;3.20;;
61704;SDS011;47627;48.078;11.522;2023-02-26T05:57:02;3.45;;;2.45;;
61704;SDS011;47627;48.078;11.522;2023-02-26T05:59:28;5.88;;;2.58;;
61704;SDS011;47627;48.078;11.522;2023-02-26T06:01:53;6.88;;;2.63;;
61704;SDS011;47627;48.078;11.522;2023-02-26T06:04:18;8.93;;;2.80;;
61704;SDS011;47627;48.078;11.522;2023-02-26T06:06:43;6.82;;;2.50;;
61704;SDS011;47627;48.078;11.522;2023-02-26T06:09:09;4.25;;;2.80;;
61704;SDS011;47627;48.078;11.522;2023-02-26T06:11:34;5.25;;;3.00;;
61704;SDS011;47627;48.078;11.522;2023-02-26T06:13:59;8.65;;;3.25;;
61704;SDS011;47627;48.078;11.522;2023-02-26T06:16:25;7.53;;;2.78;;
61704;SDS011;47627;48.078;11.522;2023-02-26T06:18:50;9.23;;;2.95;;
61704;SDS011;47627;48.078;11.522;2023-02-26T06:21:16;5.90;;;2.85;;
61704;SDS011;47627;48.078;11.522;2023-02-26T06:23:41;9.85;;;3.13;;
61704;SDS011;47627;48.078;11.522;2023-02-26T06:26:06;5.07;;;2.92;;
61704;SDS011;47627;48.078;11.522;2023-02-26T06:28:32;4.97;;;2.85;;
61704;SDS011;47627;48.078;11.522;2023-02-26T06:30:57;4.68;;;2.45;;
61704;SDS011;47627;48.078;11.522;2023-02-26T06:33:22;6.05;;;3.08;;
61704;SDS011;47627;48.078;11.522;2023-02-26T06:35:48;2.97;;;2.38;;
61704;SDS011;47627;48.078;11.522;2023-02-26T06:38:13;5.90;;;2.92;;
61704;SDS011;47627;48.078;11.522;2023-02-26T06:40:40;7.75;;;3.03;;
61704;SDS011;47627;48.078;11.522;2023-02-26T06:43:05;5.93;;;3.00;;
61704;SDS011;47627;48.078;11.522;2023-02-26T06:45:30;4.75;;;2.75;;
61704;SDS011;47627;48.078;11.522;2023-02-26T06:47:55;6.95;;;3.10;;
61704;SDS011;47627;48.078;11.522;2023-02-26T06:50:20;3.58;;;2.70;;
61704;SDS011;47627;48.078;11.522;2023-02-26T06:52:46;8.77;;;3.40;;
61704;SDS011;47627;48.078;11.522;2023-02-26T06:55:11;10.05;;;3.10;;
61704;SDS011;47627;48.078;11.522;2023-02-26T06:57:36;10.07;;;3.40;;
61704;SDS011;47627;48.078;11.522;2023-02-26T07:00:02;3.63;;;3.08;;
61704;SDS011;47627;48.078;11.522;2023-02-26T07:02:28;4.93;;;2.92;;
61704;SDS011;47627;48.078;11.522;2023-02-26T07:04:53;5.93;;;2.83;;
61704;SDS011;47627;48.078;11.522;2023-02-26T07:07:19;4.25;;;2.80;;
61704;SDS011;47627;48.078;11.522;2023-02-26T07:09:44;6.10;;;2.85;;
61704;SDS011;47627;48.078;11.522;2023-02-26T07:12:09;7.07;;;2.67;;
61704;SDS011;47627;48.078;11.522;2023-02-26T07:14:35;4.82;;;2.88;;
61704;SDS011;47627;48.078;11.522;2023-02-26T07:17:00;7.70;;;3.78;;
61704;SDS011;47627;48.078;11.522;2023-02-26T07:19:26;6.55;;;3.33;;
61704;SDS011;47627;48.078;11.522;2023-02-26T07:21:51;6.60;;;3.50;;
61704;SDS011;47627;48.078;11.522;2023-02-26T07:24:18;6.05;;;2.90;;
61704;SDS011;47627;48.078;11.522;2023-02-26T07:26:44;3.35;;;2.40;;
61704;SDS011;47627;48.078;11.522;2023-02-26T07:29:09;4.63;;;3.00;;
61704;SDS011;47627;48.078;11.522;2023-02-26T07:31:34;7.95;;;3.28;;
61704;SDS011;47627;48.078;11.522;2023-02-26T07:34:00;6.82;;;3.40;;
61704;SDS011;47627;48.078;11.522;2023-02-26T07:36:25;4.95;;;2.90;;
61704;SDS011;47627;48.078;11.522;2023-02-26T07:38:51;5.05;;;3.20;;
61704;SDS011;47627;48.078;11.522;2023-02-26T07:41:16;10.93;;;3.30;;
61704;SDS011;47627;48.078;11.522;2023-02-26T07:43:41;7.50;;;3.45;;
61704;SDS011;47627;48.078;11.522;2023-02-26T07:46:06;5.43;;;3.17;;
61704;SDS011;47627;48.078;11.522;2023-02-26T07:48:32;7.25;;;3.22;;
61704;SDS011;47627;48.078;11.522;2023-02-26T07:50:57;5.03;;;3.15;;
61704;SDS011;47627;48.078;11.522;2023-02-26T07:53:22;7.60;;;3.33;;
61704;SDS011;47627;48.078;11.522;2023-02-26T07:55:47;6.00;;;3.22;;
61704;SDS011;47627;48.078;11.522;2023-02-26T07:58:13;6.75;;;3.08;;
61704;SDS011;47627;48.078;11.522;2023-02-26T08:00:38;3.53;;;2.83;;
61704;SDS011;47627;48.078;11.522;2023-02-26T08:03:03;3.88;;;3.10;;
61704;SDS011;47627;48.078;11.522;2023-02-26T08:05:28;6.68;;;3.85;;
61704;SDS011;47627;48.078;11.522;2023-02-26T08:07:54;5.30;;;3.60;;
61704;SDS011;47627;48.078;11.522;2023-02-26T08:10:19;5.78;;;3.22;;
61704;SDS011;47627;48.078;11.522;2023-02-26T08:12:44;5.70;;;3.65;;
61704;SDS011;47627;48.078;11.522;2023-02-26T08:15:10;5.43;;;3.25;;
61704;SDS011;47627;48.078;11.522;2023-02-26T08:17:38;7.00;;;3.53;;
61704;SDS011;47627;48.078;11.522;2023-02-26T08:20:03;4.93;;;3.35;;
61704;SDS011;47627;48.078;11.522;2023-02-26T08:22:29;3.97;;;3.03;;
61704;SDS011;47627;48.078;11.522;2023-02-26T08:24:54;6.10;;;3.25;;
61704;SDS011;47627;48.078;11.522;2023-02-26T08:27:19;4.45;;;3.65;;
61704;SDS011;47627;48.078;11.522;2023-02-26T08:29:45;3.65;;;3.25;;
61704;SDS011;47627;48.078;11.522;2023-02-26T08:32:10;6.65;;;3.30;;
61704;SDS011;47627;48.078;11.522;2023-02-26T08:34:36;4.38;;;3.05;;
61704;SDS011;47627;48.078;11.522;2023-02-26T08:37:01;4.93;;;3.25;;
61704;SDS011;47627;48.078;11.522;2023-02-26T08:39:26;7.85;;;3.85;;
61704;SDS011;47627;48.078;11.522;2023-02-26T08:41:51;4.97;;;3.17;;
61704;SDS011;47627;48.078;11.522;2023-02-26T08:44:16;5.82;;;3.20;;
61704;SDS011;47627;48.078;11.522;2023-02-26T08:46:42;5.57;;;3.28;;
61704;SDS011;47627;48.078;11.522;2023-02-26T08:49:07;6.47;;;3.15;;
61704;SDS011;47627;48.078;11.522;2023-02-26T08:51:33;4.88;;;3.50;;
61704;SDS011;47627;48.078;11.522;2023-02-26T08:53:58;5.82;;;3.33;;
61704;SDS011;47627;48.078;11.522;2023-02-26T08:56:23;6.00;;;3.70;;
61704;SDS011;47627;48.078;11.522;2023-02-26T08:58:48;4.47;;;3.45;;
61704;SDS011;47627;48.078;11.522;2023-02-26T09:01:13;4.15;;;3.58;;
61704;SDS011;47627;48.078;11.522;2023-02-26T09:03:39;4.05;;;3.30;;
61704;SDS011;47627;48.078;11.522;2023-02-26T09:06:04;4.22;;;3.55;;
61704;SDS011;47627;48.078;11.522;2023-02-26T09:08:30;5.47;;;3.38;;
61704;SDS011;47627;48.078;11.522;2023-02-26T09:10:59;4.65;;;3.47;;
61704;SDS011;47627;48.078;11.522;2023-02-26T09:13:25;4.93;;;3.58;;
61704;SDS011;47627;48.078;11.522;2023-02-26T09:15:50;3.85;;;3.47;;
61704;SDS011;47627;48.078;11.522;2023-02-26T09:18:15;7.65;;;4.03;;
61704;SDS011;47627;48.078;11.522;2023-02-26T09:20:41;6.28;;;3.60;;
61704;SDS011;47627;48.078;11.522;2023-02-26T09:23:07;3.80;;;3.00;;
61704;SDS011;47627;48.078;11.522;2023-02-26T09:25:32;5.10;;;3.70;;
61704;SDS011;47627;48.078;11.522;2023-02-26T09:27:57;4.85;;;3.53;;
61704;SDS011;47627;48.078;11.522;2023-02-26T09:30:22;4.10;;;3.80;;
61704;SDS011;47627;48.078;11.522;2023-02-26T09:32:48;6.75;;;3.80;;
61704;SDS011;47627;48.078;11.522;2023-02-26T09:35:13;6.10;;;3.78;;
61704;SDS011;47627;48.078;11.522;2023-02-26T09:37:38;4.30;;;3.47;;
61704;SDS011;47627;48.078;11.522;2023-02-26T09:40:04;5.22;;;3.50;;
61704;SDS011;47627;48.078;11.522;2023-02-26T09:48:11;5.30;;;4.03;;
61704;SDS011;47627;48.078;11.522;2023-02-26T09:50:40;5.22;;;4.72;;
61704;SDS011;47627;48.078;11.522;2023-02-26T09:53:09;6.78;;;4.13;;
61704;SDS011;47627;48.078;11.522;2023-02-26T09:55:37;5.53;;;4.45;;
61704;SDS011;47627;48.078;11.522;2023-02-26T09:58:08;4.75;;;3.75;;
61704;SDS011;47627;48.078;11.522;2023-02-26T10:00:51;4.78;;;4.38;;
61704;SDS011;47627;48.078;11.522;2023-02-26T10:03:31;4.40;;;4.00;;
61704;SDS011;47627;48.078;11.522;2023-02-26T10:06:12;4.85;;;3.33;;
61704;SDS011;47627;48.078;11.522;2023-02-26T10:08:58;4.38;;;3.70;;
61704;SDS011;47627;48.078;11.522;2023-02-26T10:11:31;7.50;;;4.00;;
61704;SDS011;47627;48.078;11.522;2023-02-26T10:16:42;4.05;;;3.67;;
61704;SDS011;47627;48.078;11.522;2023-02-26T10:19:12;4.60;;;4.03;;
61704;SDS011;47627;48.078;11.522;2023-02-26T10:21:45;5.68;;;4.30;;
61704;SDS011;47627;48.078;11.522;2023-02-26T10:24:13;4.45;;;3.97;;
61704;SDS011;47627;48.078;11.522;2023-02-26T10:26:44;5.05;;;4.40;;
61704;SDS011;47627;48.078;11.522;2023-02-26T10:29:16;6.68;;;4.07;;
61704;SDS011;47627;48.078;11.522;2023-02-26T10:34:28;4.95;;;4.45;;
61704;SDS011;47627;48.078;11.522;2023-02-26T10:37:02;6.30;;;4.80;;
61704;SDS011;47627;48.078;11.522;2023-02-26T10:41:53;7.75;;;4.35;;
61704;SDS011;47627;48.078;11.522;2023-02-26T10:44:21;5.78;;;4.40;;
61704;SDS011;47627;48.078;11.522;2023-02-26T10:47:04;4.75;;;4.00;;
61704;SDS011;47627;48.078;11.522;2023-02-26T10:49:45;4.85;;;4.40;;
61704;SDS011;47627;48.078;11.522;2023-02-26T10:52:14;5.97;;;4.32;;
61704;SDS011;47627;48.078;11.522;2023-02-26T10:54:43;5.65;;;5.07;;
61704;SDS011;47627;48.078;11.522;2023-02-26T10:57:14;7.60;;;5.85;;
61704;SDS011;47627;48.078;11.522;2023-02-26T10:59:42;5.97;;;4.57;;
61704;SDS011;47627;48.078;11.522;2023-02-26T11:02:13;8.07;;;5.35;;
61704;SDS011;47627;48.078;11.522;2023-02-26T11:04:44;6.93;;;5.03;;
61704;SDS011;47627;48.078;11.522;2023-02-26T11:07:09;5.30;;;4.78;;
61704;SDS011;47627;48.078;11.522;2023-02-26T11:09:39;5.75;;;5.00;;
61704;SDS011;47627;48.078;11.522;2023-02-26T11:12:13;5.55;;;4.80;;
61704;SDS011;47627;48.078;11.522;2023-02-26T11:14:39;8.50;;;5.10;;
61704;SDS011;47627;48.078;11.522;2023-02-26T11:17:11;8.27;;;4.75;;
61704;SDS011;47627;48.078;11.522;2023-02-26T11:19:38;5.35;;;4.30;;
61704;SDS011;47627;48.078;11.522;2023-02-26T11:22:05;4.68;;;4.18;;
61704;SDS011;47627;48.078;11.522;2023-02-26T11:24:40;7.05;;;5.10;;
61704;SDS011;47627;48.078;11.522;2023-02-26T11:27:16;4.78;;;4.03;;
61704;SDS011;47627;48.078;11.522;2023-02-26T11:29:44;5.75;;;4.43;;
61704;SDS011;47627;48.078;11.522;2023-02-26T11:32:17;6.13;;;4.53;;
61704;SDS011;47627;48.078;11.522;2023-02-26T11:34:46;4.45;;;4.05;;
61704;SDS011;47627;48.078;11.522;2023-02-26T11:37:12;4.45;;;4.05;;
61704;SDS011;47627;48.078;11.522;2023-02-26T11:39:42;5.18;;;4.68;;
61704;SDS011;47627;48.078;11.522;2023-02-26T11:42:09;5.15;;;4.13;;
61704;SDS011;47627;48.078;11.522;2023-02-26T11:44:39;5.15;;;4.65;;
61704;SDS011;47627;48.078;11.522;2023-02-26T11:47:27;5.93;;;4.20;;
61704;SDS011;47627;48.078;11.522;2023-02-26T11:49:52;4.82;;;4.28;;
61704;SDS011;47627;48.078;11.522;2023-02-26T11:54:53;4.63;;;4.22;;
61704;SDS011;47627;48.078;11.522;2023-02-26T11:57:22;5.30;;;3.97;;
61704;SDS011;47627;48.078;11.522;2023-02-26T11:59:49;4.50;;;4.10;;
61704;SDS011;47627;48.078;11.522;2023-02-26T12:02:14;5.07;;;4.30;;
61704;SDS011;47627;48.078;11.522;2023-02-26T12:04:43;6.07;;;5.10;;
61704;SDS011;47627;48.078;11.522;2023-02-26T12:07:12;6.70;;;5.40;;
61704;SDS011;47627;48.078;11.522;2023-02-26T12:09:38;5.97;;;5.38;;
61704;SDS011;47627;48.078;11.522;2023-02-26T12:15:07;5.55;;;5.05;;
61704;SDS011;47627;48.078;11.522;2023-02-26T12:17:44;5.18;;;4.68;;
61704;SDS011;47627;48.078;11.522;2023-02-26T12:28:12;5.75;;;5.18;;
61704;SDS011;47627;48.078;11.522;2023-02-26T12:30:57;3.72;;;3.40;;
61704;SDS011;47627;48.078;11.522;2023-02-26T12:41:03;3.53;;;3.20;;
61704;SDS011;47627;48.078;11.522;2023-02-26T12:43:41;3.00;;;2.80;;
61704;SDS011;47627;48.078;11.522;2023-02-26T12:46:14;3.35;;;3.05;;
61704;SDS011;47627;48.078;11.522;2023-02-26T12:59:05;3.13;;;2.85;;
61704;SDS011;47627;48.078;11.522;2023-02-26T13:07:00;3.17;;;2.45;;
61704;SDS011;47627;48.078;11.522;2023-02-26T13:12:16;2.40;;;2.20;;
61704;SDS011;47627;48.078;11.522;2023-02-26T13:17:43;3.10;;;2.80;;
61704;SDS011;47627;48.078;11.522;2023-02-26T13:20:12;2.67;;;2.47;;
61704;SDS011;47627;48.078;11.522;2023-02-26T13:22:55;2.63;;;2.25;;
61704;SDS011;47627;48.078;11.522;2023-02-26T13:25:34;2.70;;;2.50;;
61704;SDS011;47627;48.078;11.522;2023-02-26T13:28:01;2.30;;;2.10;;
61704;SDS011;47627;48.078;11.522;2023-02-26T13:30:29;3.58;;;2.20;;
61704;SDS011;47627;48.078;11.522;2023-02-26T13:32:57;2.05;;;1.85;;
61704;SDS011;47627;48.078;11.522;2023-02-26T13:35:33;1.95;;;1.85;;
61704;SDS011;47627;48.078;11.522;2023-02-26T13:38:00;2.28;;;2.08;;
61704;SDS011;47627;48.078;11.522;2023-02-26T13:40:38;2.83;;;2.63;;
61704;SDS011;47627;48.078;11.522;2023-02-26T13:43:10;2.17;;;2.08;;
61704;SDS011;47627;48.078;11.522;2023-02-26T13:48:35;2.42;;;2.22;;
61704;SDS011;47627;48.078;11.522;2023-02-26T13:51:08;2.60;;;2.40;;
61704;SDS011;47627;48.078;11.522;2023-02-26T13:56:07;3.10;;;2.80;;
61704;SDS011;47627;48.078;11.522;2023-02-26T13:58:38;2.90;;;2.60;;
61704;SDS011;47627;48.078;11.522;2023-02-26T14:03:32;3.03;;;2.83;;
61704;SDS011;47627;48.078;11.522;2023-02-26T14:08:43;2.60;;;2.40;;
61704;SDS011;47627;48.078;11.522;2023-02-26T14:16:32;3.15;;;2.85;;
61704;SDS011;47627;48.078;11.522;2023-02-26T14:19:04;3.67;;;3.38;;
61704;SDS011;47627;48.078;11.522;2023-02-26T14:21:37;3.50;;;3.20;;
61704;SDS011;47627;48.078;11.522;2023-02-26T14:26:48;3.70;;;2.88;;
61704;SDS011;47627;48.078;11.522;2023-02-26T14:29:16;2.70;;;2.50;;
61704;SDS011;47627;48.078;11.522;2023-02-26T14:34:15;3.08;;;2.80;;
61704;SDS011;47627;48.078;11.522;2023-02-26T14:36:48;2.80;;;2.60;;
61704;SDS011;47627;48.078;11.522;2023-02-26T14:39:21;2.40;;;2.20;;
61704;SDS011;47627;48.078;11.522;2023-02-26T14:41:47;2.75;;;2.55;;
61704;SDS011;47627;48.078;11.522;2023-02-26T14:44:14;3.67;;;3.08;;
61704;SDS011;47627;48.078;11.522;2023-02-26T14:46:40;4.03;;;2.60;;
61704;SDS011;47627;48.078;11.522;2023-02-26T14:49:07;3.33;;;3.03;;
61704;SDS011;47627;48.078;11.522;2023-02-26T14:51:57;3.33;;;3.03;;
61704;SDS011;47627;48.078;11.522;2023-02-26T15:04:57;3.80;;;3.50;;
61704;SDS011;47627;48.078;11.522;2023-02-26T15:12:43;3.85;;;3.45;;
61704;SDS011;47627;48.078;11.522;2023-02-26T15:15:55;5.25;;;3.75;;
61704;SDS011;47627;48.078;11.522;2023-02-26T15:18:17;4.05;;;3.60;;
61704;SDS011;47627;48.078;11.522;2023-02-26T15:21:04;4.03;;;3.42;;
61704;SDS011;47627;48.078;11.522;2023-02-26T15:23:42;5.82;;;4.43;;
61704;SDS011;47627;48.078;11.522;2023-02-26T15:26:18;3.28;;;3.03;;
61704;SDS011;47627;48.078;11.522;2023-02-26T15:28:44;3.15;;;2.85;;
61704;SDS011;47627;48.078;11.522;2023-02-26T15:31:10;3.63;;;3.33;;
61704;SDS011;47627;48.078;11.522;2023-02-26T15:33:36;3.15;;;2.85;;
61704;SDS011;47627;48.078;11.522;2023-02-26T15:36:04;5.60;;;3.35;;
61704;SDS011;47627;48.078;11.522;2023-02-26T15:38:38;3.33;;;3.03;;
61704;SDS011;47627;48.078;11.522;2023-02-26T15:41:03;4.78;;;3.50;;
61704;SDS011;47627;48.078;11.522;2023-02-26T15:43:29;3.38;;;3.10;;
61704;SDS011;47627;48.078;11.522;2023-02-26T15:45:54;3.72;;;3.42;;
61704;SDS011;47627;48.078;11.522;2023-02-26T15:48:26;3.47;;;3.17;;
61704;SDS011;47627;48.078;11.522;2023-02-26T15:50:54;4.20;;;3.00;;
61704;SDS011;47627;48.078;11.522;2023-02-26T15:53:23;4.03;;;3.63;;
61704;SDS011;47627;48.078;11.522;2023-02-26T15:55:51;4.70;;;3.65;;
61704;SDS011;47627;48.078;11.522;2023-02-26T15:58:30;4.50;;;4.10;;
61704;SDS011;47627;48.078;11.522;2023-02-26T16:01:01;4.57;;;4.05;;
61704;SDS011;47627;48.078;11.522;2023-02-26T16:03:28;4.70;;;3.90;;
61704;SDS011;47627;48.078;11.522;2023-02-26T16:05:55;4.60;;;3.95;;
61704;SDS011;47627;48.078;11.522;2023-02-26T16:08:20;6.05;;;4.22;;
61704;SDS011;47627;48.078;11.522;2023-02-26T16:10:45;6.85;;;4.45;;
61704;SDS011;47627;48.078;11.522;2023-02-26T16:13:13;5.50;;;4.25;;
61704;SDS011;47627;48.078;11.522;2023-02-26T16:15:39;7.45;;;4.70;;
61704;SDS011;47627;48.078;11.522;2023-02-26T16:18:06;5.00;;;4.50;;
61704;SDS011;47627;48.078;11.522;2023-02-26T16:20:35;8.05;;;4.80;;
61704;SDS011;47627;48.078;11.522;2023-02-26T16:23:03;5.55;;;4.43;;
61704;SDS011;47627;48.078;11.522;2023-02-26T16:25:35;5.47;;;4.90;;
61704;SDS011;47627;48.078;11.522;2023-02-26T16:28:03;5.05;;;4.55;;
61704;SDS011;47627;48.078;11.522;2023-02-26T16:30:30;6.80;;;5.00;;
61704;SDS011;47627;48.078;11.522;2023-02-26T16:32:56;8.25;;;5.10;;
61704;SDS011;47627;48.078;11.522;2023-02-26T16:35:22;6.22;;;5.10;;
61704;SDS011;47627;48.078;11.522;2023-02-26T16:37:49;6.57;;;5.28;;
61704;SDS011;47627;48.078;11.522;2023-02-26T16:40:23;6.13;;;5.40;;
61704;SDS011;47627;48.078;11.522;2023-02-26T16:45:17;8.00;;;4.97;;
61704;SDS011;47627;48.078;11.522;2023-02-26T16:47:44;6.75;;;4.20;;
61704;SDS011;47627;48.078;11.522;2023-02-26T16:50:16;4.07;;;3.67;;
61704;SDS011;47627;48.078;11.522;2023-02-26T16:52:43;4.18;;;3.38;;
61704;SDS011;47627;48.078;11.522;2023-02-26T16:55:10;4.47;;;3.70;;
61704;SDS011;47627;48.078;11.522;2023-02-26T16:57:42;4.90;;;3.63;;
61704;SDS011;47627;48.078;11.522;2023-02-26T17:00:16;4.93;;;3.60;;
61704;SDS011;47627;48.078;11.522;2023-02-26T17:02:42;4.10;;;3.70;;